sensor_id;sensor_type;location;lat;lon;timestamp;temperature;humidity
7720;DHT22;3902;49.474;8.616;2024-03-29T00:01:16;10.20;99.90
7720;DHT22;3902;49.474;8.616;2024-03-29T00:03:41;10.20;99.90
7720;DHT22;3902;49.474;8.616;2024-03-29T00:06:07;10.30;99.90
7720;DHT22;3902;49.474;8.616;2024-03-29T00:08:32;10.30;99.90
7720;DHT22;3902;49.474;8.616;2024-03-29T00:10:58;10.30;99.90
7720;DHT22;3902;49.474;8.616;2024-03-29T00:13:23;10.30;99.90
7720;DHT22;3902;49.474;8.616;2024-03-29T00:15:49;10.30;99.90
7720;DHT22;3902;49.474;8.616;2024-03-29T00:18:14;10.30;99.90
7720;DHT22;3902;49.474;8.616;2024-03-29T00:20:40;10.30;99.90
7720;DHT22;3902;49.474;8.616;2024-03-29T00:23:05;10.30;99.90
7720;DHT22;3902;49.474;8.616;2024-03-29T00:25:31;10.40;99.90
7720;DHT22;3902;49.474;8.616;2024-03-29T00:27:57;10.40;99.90
7720;DHT22;3902;49.474;8.616;2024-03-29T00:30:22;10.40;99.90
7720;DHT22;3902;49.474;8.616;2024-03-29T00:32:48;10.40;99.90
7720;DHT22;3902;49.474;8.616;2024-03-29T00:35:15;10.50;99.90
7720;DHT22;3902;49.474;8.616;2024-03-29T00:37:41;10.50;99.90
7720;DHT22;3902;49.474;8.616;2024-03-29T00:40:06;10.50;99.90
7720;DHT22;3902;49.474;8.616;2024-03-29T00:42:32;10.50;99.90
7720;DHT22;3902;49.474;8.616;2024-03-29T00:44:57;10.50;99.90
7720;DHT22;3902;49.474;8.616;2024-03-29T00:47:23;10.50;99.90
7720;DHT22;3902;49.474;8.616;2024-03-29T00:49:48;10.50;99.90
7720;DHT22;3902;49.474;8.616;2024-03-29T00:52:14;10.50;99.90
7720;DHT22;3902;49.474;8.616;2024-03-29T00:54:39;10.50;99.90
7720;DHT22;3902;49.474;8.616;2024-03-29T00:57:05;10.60;99.90
7720;DHT22;3902;49.474;8.616;2024-03-29T00:59:32;10.60;99.90
7720;DHT22;3902;49.474;8.616;2024-03-29T01:01:57;10.60;99.90
7720;DHT22;3902;49.474;8.616;2024-03-29T01:04:23;10.60;99.90
7720;DHT22;3902;49.474;8.616;2024-03-29T01:06:48;10.60;99.90
7720;DHT22;3902;49.474;8.616;2024-03-29T01:09:14;10.60;99.90
7720;DHT22;3902;49.474;8.616;2024-03-29T01:11:39;10.60;99.90
7720;DHT22;3902;49.474;8.616;2024-03-29T01:14:06;10.60;99.90
7720;DHT22;3902;49.474;8.616;2024-03-29T01:16:32;10.70;99.90
7720;DHT22;3902;49.474;8.616;2024-03-29T01:18:58;10.70;99.90
7720;DHT22;3902;49.474;8.616;2024-03-29T01:21:25;10.70;99.90
7720;DHT22;3902;49.474;8.616;2024-03-29T01:23:51;10.70;99.90
7720;DHT22;3902;49.474;8.616;2024-03-29T01:26:17;10.70;99.90
7720;DHT22;3902;49.474;8.616;2024-03-29T01:28:43;10.70;99.90
7720;DHT22;3902;49.474;8.616;2024-03-29T01:31:09;10.70;99.90
7720;DHT22;3902;49.474;8.616;2024-03-29T01:33:35;10.70;99.90
7720;DHT22;3902;49.474;8.616;2024-03-29T01:36:06;10.80;99.90
7720;DHT22;3902;49.474;8.616;2024-03-29T01:38:32;10.80;99.90
7720;DHT22;3902;49.474;8.616;2024-03-29T01:40:58;10.80;99.70
7720;DHT22;3902;49.474;8.616;2024-03-29T01:43:23;10.80;99.80
7720;DHT22;3902;49.474;8.616;2024-03-29T01:45:52;10.80;99.90
7720;DHT22;3902;49.474;8.616;2024-03-29T01:48:19;10.80;99.50
7720;DHT22;3902;49.474;8.616;2024-03-29T01:50:47;10.80;99.90
7720;DHT22;3902;49.474;8.616;2024-03-29T01:53:14;10.80;99.50
7720;DHT22;3902;49.474;8.616;2024-03-29T01:55:40;10.80;99.90
7720;DHT22;3902;49.474;8.616;2024-03-29T01:58:08;10.80;99.90
7720;DHT22;3902;49.474;8.616;2024-03-29T02:00:36;10.80;99.90
7720;DHT22;3902;49.474;8.616;2024-03-29T02:03:05;10.80;99.80
7720;DHT22;3902;49.474;8.616;2024-03-29T02:05:35;10.80;99.90
7720;DHT22;3902;49.474;8.616;2024-03-29T02:08:02;10.80;99.40
7720;DHT22;3902;49.474;8.616;2024-03-29T02:10:28;10.90;99.60
7720;DHT22;3902;49.474;8.616;2024-03-29T02:12:53;10.90;99.60
7720;DHT22;3902;49.474;8.616;2024-03-29T02:15:19;10.90;99.70
7720;DHT22;3902;49.474;8.616;2024-03-29T02:17:44;10.90;99.80
7720;DHT22;3902;49.474;8.616;2024-03-29T02:20:10;10.90;99.70
7720;DHT22;3902;49.474;8.616;2024-03-29T02:22:46;10.90;99.70
7720;DHT22;3902;49.474;8.616;2024-03-29T02:25:12;10.90;98.70
7720;DHT22;3902;49.474;8.616;2024-03-29T02:27:38;10.90;99.30
7720;DHT22;3902;49.474;8.616;2024-03-29T02:30:04;10.90;99.50
7720;DHT22;3902;49.474;8.616;2024-03-29T02:32:30;10.90;99.00
7720;DHT22;3902;49.474;8.616;2024-03-29T02:34:55;11.00;99.90
7720;DHT22;3902;49.474;8.616;2024-03-29T02:37:21;11.00;99.60
7720;DHT22;3902;49.474;8.616;2024-03-29T02:39:46;10.90;99.30
7720;DHT22;3902;49.474;8.616;2024-03-29T02:42:12;11.00;99.20
7720;DHT22;3902;49.474;8.616;2024-03-29T02:44:37;11.00;99.90
7720;DHT22;3902;49.474;8.616;2024-03-29T02:47:03;11.00;99.50
7720;DHT22;3902;49.474;8.616;2024-03-29T02:49:28;11.10;99.70
7720;DHT22;3902;49.474;8.616;2024-03-29T02:51:54;11.10;99.90
7720;DHT22;3902;49.474;8.616;2024-03-29T02:54:20;11.10;99.40
7720;DHT22;3902;49.474;8.616;2024-03-29T02:56:45;11.10;99.40
7720;DHT22;3902;49.474;8.616;2024-03-29T02:59:11;11.10;99.30
7720;DHT22;3902;49.474;8.616;2024-03-29T03:01:36;11.10;99.70
7720;DHT22;3902;49.474;8.616;2024-03-29T03:04:02;11.10;99.90
7720;DHT22;3902;49.474;8.616;2024-03-29T03:06:28;11.10;99.90
7720;DHT22;3902;49.474;8.616;2024-03-29T03:08:53;11.10;99.60
7720;DHT22;3902;49.474;8.616;2024-03-29T03:11:38;11.20;99.90
7720;DHT22;3902;49.474;8.616;2024-03-29T03:14:03;11.20;99.90
7720;DHT22;3902;49.474;8.616;2024-03-29T03:16:29;11.20;99.30
7720;DHT22;3902;49.474;8.616;2024-03-29T03:18:54;11.20;98.50
7720;DHT22;3902;49.474;8.616;2024-03-29T03:21:20;11.30;98.60
7720;DHT22;3902;49.474;8.616;2024-03-29T03:23:46;11.30;98.40
7720;DHT22;3902;49.474;8.616;2024-03-29T03:26:11;11.40;98.20
7720;DHT22;3902;49.474;8.616;2024-03-29T03:28:37;11.40;98.50
7720;DHT22;3902;49.474;8.616;2024-03-29T03:31:03;11.40;98.40
7720;DHT22;3902;49.474;8.616;2024-03-29T03:33:28;11.50;97.70
7720;DHT22;3902;49.474;8.616;2024-03-29T03:35:54;11.50;97.40
7720;DHT22;3902;49.474;8.616;2024-03-29T03:38:19;11.50;97.50
7720;DHT22;3902;49.474;8.616;2024-03-29T03:40:45;11.50;97.90
7720;DHT22;3902;49.474;8.616;2024-03-29T03:43:10;11.60;97.90
7720;DHT22;3902;49.474;8.616;2024-03-29T03:45:40;11.60;97.90
7720;DHT22;3902;49.474;8.616;2024-03-29T03:48:07;11.60;97.20
7720;DHT22;3902;49.474;8.616;2024-03-29T03:50:34;11.60;97.40
7720;DHT22;3902;49.474;8.616;2024-03-29T03:52:59;11.60;97.70
7720;DHT22;3902;49.474;8.616;2024-03-29T03:55:25;11.60;98.50
7720;DHT22;3902;49.474;8.616;2024-03-29T03:57:52;11.60;99.60
7720;DHT22;3902;49.474;8.616;2024-03-29T04:00:19;11.50;99.10
7720;DHT22;3902;49.474;8.616;2024-03-29T04:02:49;11.50;99.00
7720;DHT22;3902;49.474;8.616;2024-03-29T04:05:19;11.50;99.30
7720;DHT22;3902;49.474;8.616;2024-03-29T04:07:45;11.50;99.80
7720;DHT22;3902;49.474;8.616;2024-03-29T04:10:10;11.50;99.80
7720;DHT22;3902;49.474;8.616;2024-03-29T04:12:36;11.60;99.90
7720;DHT22;3902;49.474;8.616;2024-03-29T04:15:02;11.60;99.90
7720;DHT22;3902;49.474;8.616;2024-03-29T04:17:31;11.60;99.90
7720;DHT22;3902;49.474;8.616;2024-03-29T04:19:58;11.50;99.90
7720;DHT22;3902;49.474;8.616;2024-03-29T04:22:23;11.60;99.90
7720;DHT22;3902;49.474;8.616;2024-03-29T04:24:49;11.60;99.90
7720;DHT22;3902;49.474;8.616;2024-03-29T04:27:15;11.60;99.90
7720;DHT22;3902;49.474;8.616;2024-03-29T04:29:41;11.60;99.90
7720;DHT22;3902;49.474;8.616;2024-03-29T04:32:06;11.60;99.90
7720;DHT22;3902;49.474;8.616;2024-03-29T04:34:33;11.70;99.90
7720;DHT22;3902;49.474;8.616;2024-03-29T04:36:58;11.70;99.90
7720;DHT22;3902;49.474;8.616;2024-03-29T04:39:24;11.70;99.90
7720;DHT22;3902;49.474;8.616;2024-03-29T04:41:49;11.70;99.90
7720;DHT22;3902;49.474;8.616;2024-03-29T04:44:23;11.70;99.90
7720;DHT22;3902;49.474;8.616;2024-03-29T04:46:50;11.70;99.90
7720;DHT22;3902;49.474;8.616;2024-03-29T04:49:18;11.80;99.90
7720;DHT22;3902;49.474;8.616;2024-03-29T04:51:48;11.80;99.90
7720;DHT22;3902;49.474;8.616;2024-03-29T04:54:14;11.80;99.90
7720;DHT22;3902;49.474;8.616;2024-03-29T04:56:41;11.80;99.90
7720;DHT22;3902;49.474;8.616;2024-03-29T04:59:07;11.80;99.90
7720;DHT22;3902;49.474;8.616;2024-03-29T05:01:33;11.80;99.90
7720;DHT22;3902;49.474;8.616;2024-03-29T05:04:00;11.80;99.90
7720;DHT22;3902;49.474;8.616;2024-03-29T05:06:26;11.80;99.90
7720;DHT22;3902;49.474;8.616;2024-03-29T05:08:51;11.80;99.90
7720;DHT22;3902;49.474;8.616;2024-03-29T05:11:18;11.80;99.90
7720;DHT22;3902;49.474;8.616;2024-03-29T05:13:44;11.90;99.90
7720;DHT22;3902;49.474;8.616;2024-03-29T05:16:10;11.80;99.90
7720;DHT22;3902;49.474;8.616;2024-03-29T05:18:35;11.80;99.90
7720;DHT22;3902;49.474;8.616;2024-03-29T05:21:01;11.80;99.90
7720;DHT22;3902;49.474;8.616;2024-03-29T05:23:26;11.80;99.90
7720;DHT22;3902;49.474;8.616;2024-03-29T05:25:52;11.80;99.90
7720;DHT22;3902;49.474;8.616;2024-03-29T05:28:18;11.80;99.90
7720;DHT22;3902;49.474;8.616;2024-03-29T05:30:43;11.80;99.90
7720;DHT22;3902;49.474;8.616;2024-03-29T05:33:09;11.90;99.90
7720;DHT22;3902;49.474;8.616;2024-03-29T05:35:34;11.80;99.90
7720;DHT22;3902;49.474;8.616;2024-03-29T05:38:00;11.90;99.90
7720;DHT22;3902;49.474;8.616;2024-03-29T05:40:26;11.80;99.90
7720;DHT22;3902;49.474;8.616;2024-03-29T05:42:53;11.80;99.90
7720;DHT22;3902;49.474;8.616;2024-03-29T05:45:29;11.80;99.90
7720;DHT22;3902;49.474;8.616;2024-03-29T05:47:56;11.80;99.90
7720;DHT22;3902;49.474;8.616;2024-03-29T05:50:22;11.80;99.90
7720;DHT22;3902;49.474;8.616;2024-03-29T05:52:48;11.90;99.90
7720;DHT22;3902;49.474;8.616;2024-03-29T05:55:14;11.80;99.90
7720;DHT22;3902;49.474;8.616;2024-03-29T05:57:40;11.90;99.90
7720;DHT22;3902;49.474;8.616;2024-03-29T06:00:11;11.80;99.90
7720;DHT22;3902;49.474;8.616;2024-03-29T06:02:37;11.90;99.90
7720;DHT22;3902;49.474;8.616;2024-03-29T06:05:03;11.80;99.90
7720;DHT22;3902;49.474;8.616;2024-03-29T06:07:30;11.90;99.90
7720;DHT22;3902;49.474;8.616;2024-03-29T06:09:58;11.80;99.90
7720;DHT22;3902;49.474;8.616;2024-03-29T06:12:24;11.80;99.90
7720;DHT22;3902;49.474;8.616;2024-03-29T06:14:49;11.80;99.90
7720;DHT22;3902;49.474;8.616;2024-03-29T06:17:34;11.80;99.90
7720;DHT22;3902;49.474;8.616;2024-03-29T06:20:01;11.80;99.90
7720;DHT22;3902;49.474;8.616;2024-03-29T06:22:28;11.80;99.90
7720;DHT22;3902;49.474;8.616;2024-03-29T06:24:56;11.80;99.90
7720;DHT22;3902;49.474;8.616;2024-03-29T06:27:24;11.80;99.90
7720;DHT22;3902;49.474;8.616;2024-03-29T06:29:50;11.80;99.90
7720;DHT22;3902;49.474;8.616;2024-03-29T06:32:15;11.80;99.90
7720;DHT22;3902;49.474;8.616;2024-03-29T06:34:47;11.80;99.90
7720;DHT22;3902;49.474;8.616;2024-03-29T06:37:13;11.80;99.90
7720;DHT22;3902;49.474;8.616;2024-03-29T06:39:38;11.80;99.90
7720;DHT22;3902;49.474;8.616;2024-03-29T06:42:04;11.90;99.90
7720;DHT22;3902;49.474;8.616;2024-03-29T06:44:32;11.90;99.90
7720;DHT22;3902;49.474;8.616;2024-03-29T06:46:58;11.90;99.90
7720;DHT22;3902;49.474;8.616;2024-03-29T06:49:24;11.90;99.90
7720;DHT22;3902;49.474;8.616;2024-03-29T06:51:49;11.90;99.90
7720;DHT22;3902;49.474;8.616;2024-03-29T06:54:15;11.90;99.90
7720;DHT22;3902;49.474;8.616;2024-03-29T06:56:40;12.00;99.90
7720;DHT22;3902;49.474;8.616;2024-03-29T06:59:06;12.00;99.90
7720;DHT22;3902;49.474;8.616;2024-03-29T07:01:31;12.00;99.90
7720;DHT22;3902;49.474;8.616;2024-03-29T07:03:57;12.00;99.90
7720;DHT22;3902;49.474;8.616;2024-03-29T07:06:22;12.00;99.90
7720;DHT22;3902;49.474;8.616;2024-03-29T07:08:48;12.00;99.90
7720;DHT22;3902;49.474;8.616;2024-03-29T07:11:14;12.10;99.90
7720;DHT22;3902;49.474;8.616;2024-03-29T07:13:39;12.10;99.90
7720;DHT22;3902;49.474;8.616;2024-03-29T07:16:05;12.10;99.90
7720;DHT22;3902;49.474;8.616;2024-03-29T07:18:32;12.10;99.90
7720;DHT22;3902;49.474;8.616;2024-03-29T07:20:58;12.20;99.90
7720;DHT22;3902;49.474;8.616;2024-03-29T07:23:23;12.20;99.90
7720;DHT22;3902;49.474;8.616;2024-03-29T07:25:59;12.20;99.90
7720;DHT22;3902;49.474;8.616;2024-03-29T07:28:26;12.20;99.90
7720;DHT22;3902;49.474;8.616;2024-03-29T07:30:52;12.30;99.90
7720;DHT22;3902;49.474;8.616;2024-03-29T07:33:19;12.30;99.90
7720;DHT22;3902;49.474;8.616;2024-03-29T07:35:46;12.30;99.90
7720;DHT22;3902;49.474;8.616;2024-03-29T07:38:13;12.30;99.90
7720;DHT22;3902;49.474;8.616;2024-03-29T07:40:40;12.30;99.90
7720;DHT22;3902;49.474;8.616;2024-03-29T07:43:06;12.30;99.90
7720;DHT22;3902;49.474;8.616;2024-03-29T07:45:32;12.30;99.90
7720;DHT22;3902;49.474;8.616;2024-03-29T07:47:57;12.30;99.90
7720;DHT22;3902;49.474;8.616;2024-03-29T07:50:23;12.40;99.90
7720;DHT22;3902;49.474;8.616;2024-03-29T07:52:50;12.40;99.90
7720;DHT22;3902;49.474;8.616;2024-03-29T07:55:15;12.40;99.90
7720;DHT22;3902;49.474;8.616;2024-03-29T07:57:41;12.40;99.90
7720;DHT22;3902;49.474;8.616;2024-03-29T08:00:07;12.40;99.90
7720;DHT22;3902;49.474;8.616;2024-03-29T08:02:32;12.40;99.90
7720;DHT22;3902;49.474;8.616;2024-03-29T08:04:58;12.40;99.90
7720;DHT22;3902;49.474;8.616;2024-03-29T08:07:24;12.40;99.90
7720;DHT22;3902;49.474;8.616;2024-03-29T08:09:50;12.40;99.90
7720;DHT22;3902;49.474;8.616;2024-03-29T08:12:16;12.50;99.90
7720;DHT22;3902;49.474;8.616;2024-03-29T08:14:42;12.50;99.90
7720;DHT22;3902;49.474;8.616;2024-03-29T08:17:07;12.40;99.90
7720;DHT22;3902;49.474;8.616;2024-03-29T08:19:35;12.50;99.90
7720;DHT22;3902;49.474;8.616;2024-03-29T08:22:01;12.50;99.90
7720;DHT22;3902;49.474;8.616;2024-03-29T08:24:27;12.50;99.90
7720;DHT22;3902;49.474;8.616;2024-03-29T08:26:53;12.50;99.90
7720;DHT22;3902;49.474;8.616;2024-03-29T08:29:18;12.50;99.90
7720;DHT22;3902;49.474;8.616;2024-03-29T08:31:44;12.50;99.90
7720;DHT22;3902;49.474;8.616;2024-03-29T08:34:09;12.50;99.90
7720;DHT22;3902;49.474;8.616;2024-03-29T08:36:38;12.40;99.90
7720;DHT22;3902;49.474;8.616;2024-03-29T08:39:04;12.40;99.90
7720;DHT22;3902;49.474;8.616;2024-03-29T08:41:30;12.40;99.90
7720;DHT22;3902;49.474;8.616;2024-03-29T08:43:55;12.30;99.90
7720;DHT22;3902;49.474;8.616;2024-03-29T08:46:21;12.30;99.90
7720;DHT22;3902;49.474;8.616;2024-03-29T08:48:48;12.30;99.90
7720;DHT22;3902;49.474;8.616;2024-03-29T08:51:13;12.30;99.90
7720;DHT22;3902;49.474;8.616;2024-03-29T08:53:40;12.30;99.90
7720;DHT22;3902;49.474;8.616;2024-03-29T08:56:05;12.30;99.90
7720;DHT22;3902;49.474;8.616;2024-03-29T08:58:31;12.20;99.90
7720;DHT22;3902;49.474;8.616;2024-03-29T09:00:57;12.10;99.90
7720;DHT22;3902;49.474;8.616;2024-03-29T09:03:23;12.10;99.90
7720;DHT22;3902;49.474;8.616;2024-03-29T09:05:49;12.00;99.90
7720;DHT22;3902;49.474;8.616;2024-03-29T09:08:16;12.00;99.90
7720;DHT22;3902;49.474;8.616;2024-03-29T09:10:42;12.00;99.90
7720;DHT22;3902;49.474;8.616;2024-03-29T09:13:08;12.00;99.90
7720;DHT22;3902;49.474;8.616;2024-03-29T09:15:35;12.00;99.90
7720;DHT22;3902;49.474;8.616;2024-03-29T09:18:00;11.90;99.90
7720;DHT22;3902;49.474;8.616;2024-03-29T09:20:36;11.90;99.90
7720;DHT22;3902;49.474;8.616;2024-03-29T09:23:03;11.80;99.90
7720;DHT22;3902;49.474;8.616;2024-03-29T09:25:28;11.80;99.90
7720;DHT22;3902;49.474;8.616;2024-03-29T09:27:55;11.70;99.90
7720;DHT22;3902;49.474;8.616;2024-03-29T09:30:20;11.70;99.90
7720;DHT22;3902;49.474;8.616;2024-03-29T09:32:47;11.60;99.90
7720;DHT22;3902;49.474;8.616;2024-03-29T09:35:15;11.70;99.90
7720;DHT22;3902;49.474;8.616;2024-03-29T09:37:41;11.70;99.90
7720;DHT22;3902;49.474;8.616;2024-03-29T09:40:08;11.60;99.90
7720;DHT22;3902;49.474;8.616;2024-03-29T09:42:34;11.60;99.90
7720;DHT22;3902;49.474;8.616;2024-03-29T09:45:02;11.60;99.90
7720;DHT22;3902;49.474;8.616;2024-03-29T09:47:34;11.70;99.90
7720;DHT22;3902;49.474;8.616;2024-03-29T09:50:03;11.60;99.90
7720;DHT22;3902;49.474;8.616;2024-03-29T09:52:32;11.70;99.90
7720;DHT22;3902;49.474;8.616;2024-03-29T09:54:58;11.60;99.90
7720;DHT22;3902;49.474;8.616;2024-03-29T09:57:25;11.70;99.90
7720;DHT22;3902;49.474;8.616;2024-03-29T09:59:55;11.80;99.90
7720;DHT22;3902;49.474;8.616;2024-03-29T10:02:21;11.80;99.90
7720;DHT22;3902;49.474;8.616;2024-03-29T10:04:49;11.90;99.90
7720;DHT22;3902;49.474;8.616;2024-03-29T10:07:16;11.90;99.90
7720;DHT22;3902;49.474;8.616;2024-03-29T10:09:43;11.90;99.90
7720;DHT22;3902;49.474;8.616;2024-03-29T10:12:09;12.00;99.90
7720;DHT22;3902;49.474;8.616;2024-03-29T10:14:45;11.90;99.90
7720;DHT22;3902;49.474;8.616;2024-03-29T10:17:16;12.00;99.90
7720;DHT22;3902;49.474;8.616;2024-03-29T10:19:42;11.90;99.90
7720;DHT22;3902;49.474;8.616;2024-03-29T10:22:07;12.00;99.90
7720;DHT22;3902;49.474;8.616;2024-03-29T10:24:33;12.00;99.90
7720;DHT22;3902;49.474;8.616;2024-03-29T10:26:59;12.00;99.90
7720;DHT22;3902;49.474;8.616;2024-03-29T10:29:28;12.00;99.90
7720;DHT22;3902;49.474;8.616;2024-03-29T10:31:56;12.10;99.90
7720;DHT22;3902;49.474;8.616;2024-03-29T10:34:21;12.10;99.90
7720;DHT22;3902;49.474;8.616;2024-03-29T10:36:48;12.10;99.90
7720;DHT22;3902;49.474;8.616;2024-03-29T10:39:16;12.20;99.90
7720;DHT22;3902;49.474;8.616;2024-03-29T10:41:43;12.30;99.90
7720;DHT22;3902;49.474;8.616;2024-03-29T10:44:10;12.40;99.90
7720;DHT22;3902;49.474;8.616;2024-03-29T10:46:40;12.50;99.90
7720;DHT22;3902;49.474;8.616;2024-03-29T10:49:08;12.50;99.90
7720;DHT22;3902;49.474;8.616;2024-03-29T10:51:40;12.60;99.90
7720;DHT22;3902;49.474;8.616;2024-03-29T10:54:10;12.70;99.90
7720;DHT22;3902;49.474;8.616;2024-03-29T10:56:37;12.80;99.90
7720;DHT22;3902;49.474;8.616;2024-03-29T10:59:12;12.90;99.90
7720;DHT22;3902;49.474;8.616;2024-03-29T11:01:41;13.00;99.90
7720;DHT22;3902;49.474;8.616;2024-03-29T11:04:15;13.10;99.90
7720;DHT22;3902;49.474;8.616;2024-03-29T11:06:42;13.20;99.90
7720;DHT22;3902;49.474;8.616;2024-03-29T11:09:13;13.30;99.90
7720;DHT22;3902;49.474;8.616;2024-03-29T11:11:41;13.20;99.90
7720;DHT22;3902;49.474;8.616;2024-03-29T11:14:14;13.30;99.90
7720;DHT22;3902;49.474;8.616;2024-03-29T11:16:41;13.30;99.90
7720;DHT22;3902;49.474;8.616;2024-03-29T11:19:12;13.30;99.90
7720;DHT22;3902;49.474;8.616;2024-03-29T11:21:39;13.30;99.90
7720;DHT22;3902;49.474;8.616;2024-03-29T11:24:07;13.30;99.90
7720;DHT22;3902;49.474;8.616;2024-03-29T11:26:34;13.30;99.90
7720;DHT22;3902;49.474;8.616;2024-03-29T11:29:00;13.30;99.90
7720;DHT22;3902;49.474;8.616;2024-03-29T11:31:27;13.30;99.90
7720;DHT22;3902;49.474;8.616;2024-03-29T11:33:53;13.40;99.90
7720;DHT22;3902;49.474;8.616;2024-03-29T11:38:59;13.60;99.90
7720;DHT22;3902;49.474;8.616;2024-03-29T11:41:26;13.70;99.90
7720;DHT22;3902;49.474;8.616;2024-03-29T11:43:53;13.70;99.90
7720;DHT22;3902;49.474;8.616;2024-03-29T11:46:19;13.70;99.90
7720;DHT22;3902;49.474;8.616;2024-03-29T11:48:46;13.80;99.90
7720;DHT22;3902;49.474;8.616;2024-03-29T11:51:14;13.70;99.90
7720;DHT22;3902;49.474;8.616;2024-03-29T11:53:41;13.70;99.90
7720;DHT22;3902;49.474;8.616;2024-03-29T11:56:07;13.70;99.90
7720;DHT22;3902;49.474;8.616;2024-03-29T11:58:33;13.70;99.90
7720;DHT22;3902;49.474;8.616;2024-03-29T12:01:00;13.70;99.90
7720;DHT22;3902;49.474;8.616;2024-03-29T12:03:27;13.70;99.90
7720;DHT22;3902;49.474;8.616;2024-03-29T12:05:54;13.60;99.90
7720;DHT22;3902;49.474;8.616;2024-03-29T12:08:27;13.60;99.90
7720;DHT22;3902;49.474;8.616;2024-03-29T12:10:52;13.50;99.90
7720;DHT22;3902;49.474;8.616;2024-03-29T12:13:18;13.50;99.90
7720;DHT22;3902;49.474;8.616;2024-03-29T12:15:44;13.40;99.90
7720;DHT22;3902;49.474;8.616;2024-03-29T12:18:10;13.40;99.90
7720;DHT22;3902;49.474;8.616;2024-03-29T12:20:38;13.30;99.90
7720;DHT22;3902;49.474;8.616;2024-03-29T12:23:05;13.40;99.90
7720;DHT22;3902;49.474;8.616;2024-03-29T12:25:32;13.30;99.90
7720;DHT22;3902;49.474;8.616;2024-03-29T12:27:59;13.20;99.90
7720;DHT22;3902;49.474;8.616;2024-03-29T12:30:25;13.20;99.90
7720;DHT22;3902;49.474;8.616;2024-03-29T12:33:05;13.20;99.90
7720;DHT22;3902;49.474;8.616;2024-03-29T12:35:35;13.30;99.90
7720;DHT22;3902;49.474;8.616;2024-03-29T12:38:03;13.30;99.90
7720;DHT22;3902;49.474;8.616;2024-03-29T12:40:30;13.30;99.90
7720;DHT22;3902;49.474;8.616;2024-03-29T12:43:03;13.30;99.90
7720;DHT22;3902;49.474;8.616;2024-03-29T12:45:30;13.30;99.90
7720;DHT22;3902;49.474;8.616;2024-03-29T12:47:56;13.30;99.90
7720;DHT22;3902;49.474;8.616;2024-03-29T12:50:29;13.30;99.90
7720;DHT22;3902;49.474;8.616;2024-03-29T12:53:05;13.30;99.90
7720;DHT22;3902;49.474;8.616;2024-03-29T12:55:31;13.30;99.90
7720;DHT22;3902;49.474;8.616;2024-03-29T12:58:00;13.30;99.90
7720;DHT22;3902;49.474;8.616;2024-03-29T13:00:27;13.30;99.90
7720;DHT22;3902;49.474;8.616;2024-03-29T13:02:53;13.40;99.90
7720;DHT22;3902;49.474;8.616;2024-03-29T13:05:18;13.40;99.90
7720;DHT22;3902;49.474;8.616;2024-03-29T13:07:44;13.30;99.90
7720;DHT22;3902;49.474;8.616;2024-03-29T13:10:09;13.30;99.90
7720;DHT22;3902;49.474;8.616;2024-03-29T13:12:41;13.30;99.90
7720;DHT22;3902;49.474;8.616;2024-03-29T13:15:16;13.30;99.90
7720;DHT22;3902;49.474;8.616;2024-03-29T13:17:42;13.30;99.90
7720;DHT22;3902;49.474;8.616;2024-03-29T13:20:08;13.30;99.90
7720;DHT22;3902;49.474;8.616;2024-03-29T13:22:35;13.30;99.90
7720;DHT22;3902;49.474;8.616;2024-03-29T13:25:01;13.30;99.90
7720;DHT22;3902;49.474;8.616;2024-03-29T13:27:26;13.30;99.90
7720;DHT22;3902;49.474;8.616;2024-03-29T13:29:52;13.20;99.90
7720;DHT22;3902;49.474;8.616;2024-03-29T13:32:18;13.20;99.90
7720;DHT22;3902;49.474;8.616;2024-03-29T13:34:43;13.20;99.90
7720;DHT22;3902;49.474;8.616;2024-03-29T13:37:09;13.30;99.90
7720;DHT22;3902;49.474;8.616;2024-03-29T13:39:35;13.20;99.90
7720;DHT22;3902;49.474;8.616;2024-03-29T13:42:00;13.20;99.90
7720;DHT22;3902;49.474;8.616;2024-03-29T13:44:26;13.20;99.90
7720;DHT22;3902;49.474;8.616;2024-03-29T13:46:51;13.20;99.90
7720;DHT22;3902;49.474;8.616;2024-03-29T13:49:18;13.20;99.90
7720;DHT22;3902;49.474;8.616;2024-03-29T13:51:46;13.20;99.90
7720;DHT22;3902;49.474;8.616;2024-03-29T13:54:12;13.30;99.90
7720;DHT22;3902;49.474;8.616;2024-03-29T13:56:38;13.30;99.90
7720;DHT22;3902;49.474;8.616;2024-03-29T13:59:03;13.30;99.90
7720;DHT22;3902;49.474;8.616;2024-03-29T14:01:29;13.30;99.90
7720;DHT22;3902;49.474;8.616;2024-03-29T14:03:54;13.30;99.90
7720;DHT22;3902;49.474;8.616;2024-03-29T14:06:20;13.30;99.90
7720;DHT22;3902;49.474;8.616;2024-03-29T14:08:46;13.40;99.90
7720;DHT22;3902;49.474;8.616;2024-03-29T14:11:12;13.40;99.90
7720;DHT22;3902;49.474;8.616;2024-03-29T14:13:39;13.40;99.90
7720;DHT22;3902;49.474;8.616;2024-03-29T14:16:05;13.40;99.90
7720;DHT22;3902;49.474;8.616;2024-03-29T14:18:30;13.40;99.90
7720;DHT22;3902;49.474;8.616;2024-03-29T14:20:57;13.40;99.90
7720;DHT22;3902;49.474;8.616;2024-03-29T14:23:22;13.40;99.90
7720;DHT22;3902;49.474;8.616;2024-03-29T14:25:50;13.50;99.90
7720;DHT22;3902;49.474;8.616;2024-03-29T14:28:16;13.50;99.90
7720;DHT22;3902;49.474;8.616;2024-03-29T14:30:42;13.60;99.90
7720;DHT22;3902;49.474;8.616;2024-03-29T14:33:07;13.70;99.90
7720;DHT22;3902;49.474;8.616;2024-03-29T14:35:34;13.80;99.90
7720;DHT22;3902;49.474;8.616;2024-03-29T14:38:00;14.00;99.90
7720;DHT22;3902;49.474;8.616;2024-03-29T14:40:26;14.10;99.90
7720;DHT22;3902;49.474;8.616;2024-03-29T14:42:54;14.40;99.90
7720;DHT22;3902;49.474;8.616;2024-03-29T14:45:20;14.60;99.90
7720;DHT22;3902;49.474;8.616;2024-03-29T14:47:46;15.00;99.90
7720;DHT22;3902;49.474;8.616;2024-03-29T14:50:11;15.30;99.90
7720;DHT22;3902;49.474;8.616;2024-03-29T14:52:38;15.60;99.90
7720;DHT22;3902;49.474;8.616;2024-03-29T14:55:04;15.70;99.90
7720;DHT22;3902;49.474;8.616;2024-03-29T14:57:30;15.70;99.90
7720;DHT22;3902;49.474;8.616;2024-03-29T14:59:56;15.60;99.90
7720;DHT22;3902;49.474;8.616;2024-03-29T15:02:21;15.60;99.90
7720;DHT22;3902;49.474;8.616;2024-03-29T15:04:47;15.50;99.90
7720;DHT22;3902;49.474;8.616;2024-03-29T15:07:13;15.30;99.90
7720;DHT22;3902;49.474;8.616;2024-03-29T15:09:38;15.10;99.90
7720;DHT22;3902;49.474;8.616;2024-03-29T15:12:04;15.10;99.90
7720;DHT22;3902;49.474;8.616;2024-03-29T15:14:30;15.00;99.90
7720;DHT22;3902;49.474;8.616;2024-03-29T15:16:56;14.90;99.90
7720;DHT22;3902;49.474;8.616;2024-03-29T15:19:22;14.80;99.90
7720;DHT22;3902;49.474;8.616;2024-03-29T15:21:47;14.70;99.90
7720;DHT22;3902;49.474;8.616;2024-03-29T15:24:14;14.80;99.90
7720;DHT22;3902;49.474;8.616;2024-03-29T15:26:40;14.80;99.90
7720;DHT22;3902;49.474;8.616;2024-03-29T15:29:05;14.70;99.90
7720;DHT22;3902;49.474;8.616;2024-03-29T15:31:40;14.70;99.90
7720;DHT22;3902;49.474;8.616;2024-03-29T15:34:07;14.70;99.90
7720;DHT22;3902;49.474;8.616;2024-03-29T15:36:35;14.70;99.90
7720;DHT22;3902;49.474;8.616;2024-03-29T15:39:01;14.70;99.90
7720;DHT22;3902;49.474;8.616;2024-03-29T15:41:38;14.70;99.90
7720;DHT22;3902;49.474;8.616;2024-03-29T15:44:04;14.70;99.90
7720;DHT22;3902;49.474;8.616;2024-03-29T15:46:31;14.80;99.90
7720;DHT22;3902;49.474;8.616;2024-03-29T15:48:57;14.80;99.90
7720;DHT22;3902;49.474;8.616;2024-03-29T15:51:23;14.90;99.90
7720;DHT22;3902;49.474;8.616;2024-03-29T15:53:49;14.90;99.90
7720;DHT22;3902;49.474;8.616;2024-03-29T15:56:15;15.00;99.90
7720;DHT22;3902;49.474;8.616;2024-03-29T15:58:41;15.10;99.90
7720;DHT22;3902;49.474;8.616;2024-03-29T16:01:08;15.10;99.90